createdAt,value
2022-12-13T00:01:58.776Z,99648.41
2022-12-13T00:04:26.801Z,99631.97
2022-12-13T00:06:54.350Z,99635.13
2022-12-13T00:09:22.403Z,99642.44
2022-12-13T00:11:50.532Z,99636.06
2022-12-13T00:14:18.478Z,99640.69
2022-12-13T00:16:49.161Z,99647.94
2022-12-13T00:19:18.240Z,99642.31
2022-12-13T00:21:45.758Z,99641.81
2022-12-13T00:24:13.652Z,99642.56
2022-12-13T00:26:40.938Z,99650.56
2022-12-13T00:29:08.744Z,99644.19
2022-12-13T00:31:58.721Z,99641.47
2022-12-13T00:34:24.901Z,99645.69
2022-12-13T00:36:54.967Z,99642.63
2022-12-13T00:39:22.521Z,99641.09
2022-12-13T00:41:49.749Z,99641.81
2022-12-13T00:44:22.382Z,99651.66
2022-12-13T00:46:51.775Z,99642.63
2022-12-13T00:49:19.810Z,99638.31
2022-12-13T00:51:49.406Z,99638.50
2022-12-13T00:54:17.079Z,99632.53
2022-12-13T00:56:44.344Z,99633.28
2022-12-13T00:59:15.140Z,99623.97
2022-12-13T01:01:42.447Z,99613.97
2022-12-13T01:04:10.969Z,99607.44
2022-12-13T01:06:46.902Z,99609.31
2022-12-13T01:09:28.719Z,99607.03
2022-12-13T01:12:04.519Z,99610.78
2022-12-13T01:14:32.014Z,99617.94
2022-12-13T01:16:59.191Z,99609.38
2022-12-13T01:19:28.736Z,99603.34
2022-12-13T01:22:05.822Z,99593.09
2022-12-13T01:24:34.520Z,99599.19
2022-12-13T01:27:01.947Z,99594.19
2022-12-13T01:29:29.462Z,99607.25
2022-12-13T01:31:56.847Z,99623.44
2022-12-13T01:34:26.488Z,99612.88
2022-12-13T01:36:58.481Z,99608.50
2022-12-13T01:39:27.723Z,99605.19
2022-12-13T01:41:59.650Z,99605.19
2022-12-13T01:44:55.622Z,99598.56
2022-12-13T01:47:42.610Z,99593.34
2022-12-13T01:50:51.191Z,99610.75
2022-12-13T01:53:27.765Z,99606.41
2022-12-13T01:56:03.557Z,99599.44
2022-12-13T01:58:31.294Z,99605.47
2022-12-13T02:01:02.664Z,99599.69
2022-12-13T02:03:30.067Z,99597.06
2022-12-13T02:06:17.354Z,99598.84
2022-12-13T02:08:46.964Z,99595.72
2022-12-13T02:11:15.681Z,99587.59
2022-12-13T02:13:43.201Z,99593.94
2022-12-13T02:17:07.484Z,99590.72
2022-12-13T02:19:58.891Z,99581.84
2022-12-13T02:23:10.877Z,99583.88
2022-12-13T02:26:35.893Z,99574.47
2022-12-13T02:29:31.207Z,99576.31
2022-12-13T02:32:44.452Z,99568.88
2022-12-13T02:35:39.805Z,99569.53
2022-12-13T02:39:03.580Z,99573.38
2022-12-13T02:44:40.541Z,99571.31
2022-12-13T02:47:22.613Z,99584.44
2022-12-13T02:50:00.276Z,99575.69
2022-12-13T02:52:31.653Z,99564.66
2022-12-13T02:54:59.596Z,99558.25
2022-12-13T02:57:41.828Z,99566.63
2022-12-13T03:00:19.183Z,99564.22
2022-12-13T03:02:56.991Z,99567.91
2022-12-13T03:06:33.645Z,99572.97
2022-12-13T03:09:38.667Z,99558.19
2022-12-13T03:13:02.845Z,99558.06
2022-12-13T03:15:53.053Z,99556.78
2022-12-13T03:18:25.105Z,99559.34
2022-12-13T03:20:58.191Z,99549.75
2022-12-13T03:23:27.389Z,99548.59
2022-12-13T03:26:26.784Z,99547.00
2022-12-13T03:28:54.321Z,99549.31
2022-12-13T03:31:21.998Z,99554.44
2022-12-13T03:33:49.401Z,99541.72
2022-12-13T03:36:18.991Z,99535.97
2022-12-13T03:38:52.403Z,99532.66
2022-12-13T03:41:31.207Z,99537.28
2022-12-13T03:44:06.354Z,99528.78
2022-12-13T03:46:33.631Z,99534.22
2022-12-13T03:49:01.619Z,99532.81
2022-12-13T03:51:28.972Z,99531.28
2022-12-13T03:53:57.477Z,99527.31
2022-12-13T03:56:26.239Z,99525.50
2022-12-13T03:58:53.734Z,99524.59
2022-12-13T04:01:22.107Z,99526.28
2022-12-13T04:03:49.633Z,99521.44
2022-12-13T04:06:22.399Z,99527.84
2022-12-13T04:08:52.474Z,99514.53
2022-12-13T04:11:42.725Z,99524.28
2022-12-13T04:14:12.019Z,99505.53
2022-12-13T04:16:39.517Z,99509.41
2022-12-13T04:19:07.501Z,99504.53
2022-12-13T04:21:34.930Z,99508.88
2022-12-13T04:24:02.075Z,99518.69
2022-12-13T04:26:29.812Z,99522.41
2022-12-13T04:28:57.328Z,99507.13
2022-12-13T04:31:24.716Z,99511.00
2022-12-13T04:33:52.027Z,99506.13
2022-12-13T04:36:32.047Z,99506.25
2022-12-13T04:39:03.224Z,99510.88
2022-12-13T04:41:35.819Z,99500.06
2022-12-13T04:44:06.119Z,99508.41
2022-12-13T04:46:34.357Z,99499.81
2022-12-13T04:49:02.107Z,99501.97
2022-12-13T04:51:29.416Z,99498.16
2022-12-13T04:53:57.476Z,99492.09
2022-12-13T04:56:44.721Z,99494.66
2022-12-13T04:59:13.521Z,99493.78
2022-12-13T05:01:40.791Z,99488.63
2022-12-13T05:04:08.043Z,99481.94
2022-12-13T05:06:35.168Z,99490.81
2022-12-13T05:09:02.627Z,99481.44
2022-12-13T05:11:38.476Z,99495.84
2022-12-13T05:14:13.341Z,99484.28
2022-12-13T05:16:40.748Z,99475.00
2022-12-13T05:19:08.782Z,99474.25
2022-12-13T05:21:36.077Z,99474.25
2022-12-13T05:24:03.802Z,99485.56
2022-12-13T05:26:31.856Z,99482.50
2022-12-13T05:28:59.658Z,99483.75
2022-12-13T05:31:26.896Z,99488.81
2022-12-13T05:33:54.895Z,99485.59
2022-12-13T05:36:29.038Z,99480.31
2022-12-13T05:38:56.804Z,99483.16
2022-12-13T05:41:24.916Z,99482.88
2022-12-13T05:43:52.591Z,99470.91
2022-12-13T05:46:20.039Z,99482.22
2022-12-13T05:48:47.283Z,99475.81
2022-12-13T05:51:14.752Z,99474.00
2022-12-13T05:53:42.710Z,99474.13
2022-12-13T05:56:11.682Z,99473.59
2022-12-13T05:58:40.863Z,99476.19
2022-12-13T06:01:15.271Z,99477.88
2022-12-13T06:03:43.081Z,99472.56
2022-12-13T06:06:13.001Z,99478.50
2022-12-13T06:08:40.638Z,99471.81
2022-12-13T06:11:11.325Z,99479.66
2022-12-13T06:13:44.396Z,99475.53
2022-12-13T06:16:22.063Z,99470.78
2022-12-13T06:19:03.202Z,99478.38
2022-12-13T06:21:41.664Z,99478.66
2022-12-13T06:24:19.350Z,99477.59
2022-12-13T06:26:47.433Z,99476.59
2022-12-13T06:29:23.320Z,99469.88
2022-12-13T06:32:03.638Z,99477.59
2022-12-13T06:34:35.788Z,99467.19
2022-12-13T06:37:08.879Z,99464.75
2022-12-13T06:39:36.283Z,99465.25
2022-12-13T06:42:06.406Z,99469.38
2022-12-13T06:44:35.528Z,99462.94
2022-12-13T06:47:10.731Z,99477.34
2022-12-13T06:49:43.591Z,99479.91
2022-12-13T06:52:14.649Z,99483.78
2022-12-13T06:54:43.128Z,99480.16
2022-12-13T06:57:12.810Z,99477.22
2022-12-13T06:59:40.576Z,99471.81
2022-12-13T07:02:15.370Z,99481.47
2022-12-13T07:04:53.437Z,99479.78
2022-12-13T07:07:20.786Z,99488.41
2022-12-13T07:09:47.922Z,99490.97
2022-12-13T07:12:15.106Z,99498.19
2022-12-13T07:14:42.753Z,99508.47
2022-12-13T07:17:10.797Z,99512.19
2022-12-13T07:19:38.345Z,99507.44
2022-12-13T07:22:05.855Z,99511.19
2022-12-13T07:24:35.423Z,99512.84
2022-12-13T07:27:04.240Z,99525.84
2022-12-13T07:29:31.492Z,99521.06
2022-12-13T07:32:01.745Z,99524.69
2022-12-13T07:34:31.227Z,99525.19
2022-12-13T07:36:58.599Z,99534.97
2022-12-13T07:39:26.712Z,99535.34
2022-12-13T07:41:57.489Z,99536.25
2022-12-13T07:44:25.182Z,99536.53
2022-12-13T07:46:52.786Z,99538.31
2022-12-13T07:49:20.278Z,99544.75
2022-12-13T07:51:49.038Z,99542.19
2022-12-13T07:54:16.798Z,99546.56
2022-12-13T07:56:44.213Z,99549.66
2022-12-13T07:59:13.458Z,99553.63
2022-12-13T08:01:40.847Z,99554.00
2022-12-13T08:04:09.966Z,99550.66
2022-12-13T08:06:38.493Z,99555.56
2022-12-13T08:09:06.056Z,99562.75
2022-12-13T08:11:33.806Z,99555.56
2022-12-13T08:14:01.278Z,99559.16
2022-12-13T08:16:30.568Z,99553.75
2022-12-13T08:19:01.781Z,99560.44
2022-12-13T08:24:29.804Z,99549.91
2022-12-13T08:27:03.217Z,99557.34
2022-12-13T08:29:35.853Z,99560.84
2022-12-13T08:32:07.910Z,99564.28
2022-12-13T08:34:36.247Z,99570.22
2022-12-13T08:37:05.915Z,99567.78
2022-12-13T08:39:37.099Z,99572.53
2022-12-13T08:42:20.106Z,99570.63
2022-12-13T08:44:50.854Z,99580.50
2022-12-13T08:47:26.834Z,99583.59
2022-12-13T08:50:04.061Z,99592.06
2022-12-13T08:52:39.785Z,99587.06
2022-12-13T08:55:13.807Z,99589.00
2022-12-13T08:57:43.119Z,99592.38
2022-12-13T09:00:19.472Z,99593.63
2022-12-13T09:02:47.081Z,99608.81
2022-12-13T09:05:33.129Z,99612.66
2022-12-13T09:08:04.474Z,99620.63
2022-12-13T09:11:00.383Z,99617.19
2022-12-13T09:13:34.468Z,99624.78
2022-12-13T09:16:24.868Z,99622.84
2022-12-13T09:18:54.929Z,99617.03
2022-12-13T09:21:31.697Z,99624.91
2022-12-13T09:24:01.854Z,99627.09
2022-12-13T09:26:37.775Z,99630.06
2022-12-13T09:29:10.267Z,99632.25
2022-12-13T09:31:40.510Z,99630.19
2022-12-13T09:34:10.481Z,99638.56
2022-12-13T09:36:38.620Z,99637.63
2022-12-13T09:39:06.417Z,99635.31
2022-12-13T09:41:49.499Z,99648.59
2022-12-13T09:44:32.188Z,99650.63
2022-12-13T09:47:26.937Z,99645.09
2022-12-13T09:50:15.100Z,99642.53
2022-12-13T09:52:46.145Z,99641.00
2022-12-13T09:55:31.238Z,99645.22
2022-12-13T09:58:01.093Z,99639.94
2022-12-13T10:00:36.043Z,99641.38
2022-12-13T10:03:04.817Z,99634.28
2022-12-13T10:05:40.114Z,99631.59
2022-12-13T10:08:15.506Z,99626.34
2022-12-13T10:10:44.637Z,99621.56
2022-12-13T10:14:01.712Z,99607.03
2022-12-13T10:16:35.669Z,99617.31
2022-12-13T10:19:37.239Z,99605.59
2022-12-13T10:22:11.929Z,99611.38
2022-12-13T10:25:05.828Z,99596.31
2022-12-13T10:27:45.174Z,99599.69
2022-12-13T10:30:28.042Z,99603.13
2022-12-13T10:33:03.736Z,99607.16
2022-12-13T10:35:39.766Z,99599.94
2022-12-13T10:38:16.531Z,99607.28
2022-12-13T10:40:49.229Z,99601.09
2022-12-13T10:43:27.204Z,99600.34
2022-12-13T10:46:01.146Z,99597.59
2022-12-13T10:48:50.635Z,99604.44
2022-12-13T10:51:22.872Z,99600.84
2022-12-13T10:53:59.107Z,99602.66
2022-12-13T10:56:47.627Z,99596.69
2022-12-13T10:59:17.957Z,99590.53
2022-12-13T11:01:45.491Z,99584.59
2022-12-13T11:04:35.018Z,99581.00
2022-12-13T11:07:32.720Z,99590.66
2022-12-13T11:10:26.667Z,99591.31
2022-12-13T11:13:03.703Z,99587.44
2022-12-13T11:15:35.095Z,99579.84
2022-12-13T11:18:19.154Z,99577.28
2022-12-13T11:21:03.538Z,99576.75
2022-12-13T11:23:42.765Z,99572.38
2022-12-13T11:26:24.601Z,99564.13
2022-12-13T11:29:30.678Z,99566.34
2022-12-13T11:32:22.521Z,99570.72
2022-12-13T11:35:31.392Z,99560.28
2022-12-13T11:38:36.408Z,99556.81
2022-12-13T11:41:56.756Z,99550.06
2022-12-13T11:45:04.876Z,99546.00
2022-12-13T11:47:44.197Z,99541.09
2022-12-13T11:50:33.545Z,99531.28
2022-12-13T11:54:03.511Z,99534.31
2022-12-13T11:56:38.966Z,99527.72
2022-12-13T12:00:02.272Z,99528.38
2022-12-13T12:02:40.854Z,99519.41
2022-12-13T12:05:28.820Z,99519.78
2022-12-13T12:08:32.400Z,99515.00
2022-12-13T12:11:31.658Z,99509.78
2022-12-13T12:14:54.479Z,99518.28
2022-12-13T12:17:25.307Z,99514.50
2022-12-13T12:19:57.764Z,99514.47
2022-12-13T12:22:49.567Z,99513.97
2022-12-13T12:26:06.661Z,99513.91
2022-12-13T12:28:56.860Z,99508.00
2022-12-13T12:31:50.407Z,99504.88
2022-12-13T12:34:48.812Z,99508.63
2022-12-13T12:37:45.170Z,99501.25
2022-12-13T12:41:16.479Z,99502.13
2022-12-13T12:43:45.678Z,99497.81
2022-12-13T12:47:19.239Z,99496.28
2022-12-13T12:50:26.678Z,99504.56
2022-12-13T12:53:21.515Z,99497.81
2022-12-13T12:56:05.321Z,99496.28
2022-12-13T12:59:03.168Z,99496.03
2022-12-13T13:02:17.374Z,99492.06
2022-12-13T13:04:56.360Z,99484.47
2022-12-13T13:07:39.624Z,99484.56
2022-12-13T13:10:16.616Z,99491.06
2022-12-13T13:12:53.628Z,99482.59
2022-12-13T13:15:38.962Z,99484.41
2022-12-13T13:18:52.560Z,99467.63
2022-12-13T13:22:02.072Z,99481.97
2022-12-13T13:24:33.075Z,99484.34
2022-12-13T13:27:09.270Z,99486.03
2022-12-13T13:29:43.366Z,99475.13
2022-12-13T13:32:11.313Z,99473.91
2022-12-13T13:34:49.398Z,99467.13
2022-12-13T13:37:29.228Z,99463.25
2022-12-13T13:40:30.434Z,99455.03
2022-12-13T13:43:10.938Z,99455.03
2022-12-13T13:46:11.512Z,99451.28
2022-12-13T13:48:59.446Z,99453.50
2022-12-13T13:52:23.895Z,99451.03
2022-12-13T13:55:28.569Z,99459.03
2022-12-13T13:58:43.090Z,99452.28
2022-12-13T14:02:02.528Z,99447.53
2022-12-13T14:05:08.393Z,99463.31
2022-12-13T14:08:21.011Z,99455.22
2022-12-13T14:11:47.003Z,99457.91
2022-12-13T14:14:49.807Z,99460.50
2022-12-13T14:18:14.011Z,99457.38
2022-12-13T14:21:29.417Z,99460.97
2022-12-13T14:24:52.084Z,99464.72
2022-12-13T14:27:36.201Z,99465.38
2022-12-13T14:30:28.656Z,99465.75
2022-12-13T14:32:54.220Z,99461.50
2022-12-13T14:35:29.333Z,99469.25
2022-12-13T14:38:25.677Z,99464.22
2022-12-13T14:40:58.582Z,99466.81
2022-12-13T14:43:33.942Z,99466.41
2022-12-13T14:46:08.785Z,99477.84
2022-12-13T14:48:50.499Z,99474.53
2022-12-13T14:51:35.016Z,99475.06
2022-12-13T14:54:05.764Z,99483.84
2022-12-13T14:56:33.747Z,99490.81
2022-12-13T14:59:11.059Z,99492.63
2022-12-13T15:01:40.914Z,99496.22
2022-12-13T15:04:30.118Z,99491.84
2022-12-13T15:07:32.857Z,99495.97
2022-12-13T15:10:22.423Z,99501.69
2022-12-13T15:12:53.583Z,99502.75
2022-12-13T15:15:36.711Z,99492.88
2022-12-13T15:18:09.991Z,99493.13
2022-12-13T15:20:43.124Z,99494.66
2022-12-13T15:23:30.773Z,99486.56
2022-12-13T15:26:28.976Z,99499.19
2022-12-13T15:29:09.578Z,99501.69
2022-12-13T15:31:40.592Z,99501.94
2022-12-13T15:34:31.057Z,99497.44
2022-12-13T15:37:05.880Z,99499.84
2022-12-13T15:39:39.999Z,99488.88
2022-12-13T15:42:33.918Z,99484.47
2022-12-13T15:45:19.047Z,99483.38
2022-12-13T15:47:49.308Z,99488.25
2022-12-13T15:50:45.472Z,99489.47
2022-12-13T15:53:29.339Z,99480.84
2022-12-13T15:55:57.006Z,99495.13
2022-12-13T15:58:33.951Z,99483.69
2022-12-13T16:01:05.280Z,99500.41
2022-12-13T16:03:47.233Z,99495.25
2022-12-13T16:06:22.392Z,99498.72
2022-12-13T16:08:58.736Z,99508.13
2022-12-13T16:11:48.541Z,99508.69
2022-12-13T16:14:31.480Z,99512.00
2022-12-13T16:17:26.176Z,99512.00
2022-12-13T16:19:56.058Z,99503.78
2022-12-13T16:22:24.003Z,99509.19
2022-12-13T16:24:52.794Z,99514.34
2022-12-13T16:27:20.527Z,99512.13
2022-12-13T16:29:47.885Z,99510.19
2022-12-13T16:32:15.309Z,99509.44
2022-12-13T16:34:42.605Z,99515.59
2022-12-13T16:37:25.742Z,99511.47
2022-12-13T16:39:56.803Z,99498.59
2022-12-13T16:42:25.950Z,99505.41
2022-12-13T16:45:24.741Z,99505.41
2022-12-13T16:47:49.060Z,99510.69
2022-12-13T16:50:20.781Z,99514.84
2022-12-13T16:52:49.010Z,99513.28
2022-12-13T16:55:16.659Z,99501.84
2022-12-13T16:58:00.400Z,99517.66
2022-12-13T17:00:29.559Z,99508.00
2022-12-13T17:02:59.956Z,99506.84
2022-12-13T17:05:29.436Z,99506.59
2022-12-13T17:07:56.828Z,99495.25
2022-12-13T17:10:24.412Z,99503.75
2022-12-13T17:12:51.673Z,99504.41
2022-12-13T17:15:19.197Z,99501.06
2022-12-13T17:17:47.642Z,99494.75
2022-12-13T17:20:18.170Z,99495.41
2022-12-13T17:22:46.624Z,99486.78
2022-12-13T17:25:14.603Z,99491.66
2022-12-13T17:27:42.284Z,99484.06
2022-12-13T17:30:16.539Z,99480.38
2022-12-13T17:32:44.864Z,99485.66
2022-12-13T17:35:17.901Z,99490.13
2022-12-13T17:37:45.699Z,99485.22
2022-12-13T17:40:13.484Z,99478.06
2022-12-13T17:42:40.704Z,99477.25
2022-12-13T17:45:08.482Z,99481.63
2022-12-13T17:47:36.427Z,99477.75
2022-12-13T17:50:04.143Z,99479.56
2022-12-13T17:52:31.416Z,99479.56
2022-12-13T17:55:00.849Z,99485.59
2022-12-13T17:57:34.659Z,99487.28
2022-12-13T18:00:04.350Z,99488.97
2022-12-13T18:02:39.882Z,99491.28
2022-12-13T18:05:09.368Z,99493.75
2022-12-13T18:07:39.205Z,99498.66
2022-12-13T18:10:07.821Z,99497.84
2022-12-13T18:12:35.009Z,99481.63
2022-12-13T18:15:02.193Z,99488.34
2022-12-13T18:18:08.783Z,99489.22
2022-12-13T18:20:16.744Z,99491.66
2022-12-13T18:22:49.753Z,99496.69
2022-12-13T18:25:18.625Z,99484.72
2022-12-13T18:27:45.863Z,99493.13
2022-12-13T18:30:13.613Z,99499.94
2022-12-13T18:32:41.900Z,99495.81
2022-12-13T18:35:09.324Z,99484.63
2022-12-13T18:37:36.559Z,99486.56
2022-12-13T18:40:06.113Z,99483.97
2022-12-13T18:42:34.655Z,99475.09
2022-12-13T18:45:01.996Z,99474.06
2022-12-13T18:47:29.541Z,99456.94
2022-12-13T18:49:56.906Z,99462.22
2022-12-13T18:52:24.450Z,99469.28
2022-12-13T18:54:54.644Z,99471.88
2022-12-13T18:57:22.143Z,99470.19
2022-12-13T18:59:54.227Z,99479.59
2022-12-13T19:02:22.245Z,99477.53
2022-12-13T19:04:55.281Z,99475.72
2022-12-13T19:07:23.107Z,99482.19
2022-12-13T19:09:54.675Z,99479.09
2022-12-13T19:12:23.635Z,99482.56
2022-12-13T19:14:54.686Z,99484.75
2022-12-13T19:17:23.510Z,99493.63
2022-12-13T19:19:50.823Z,99484.63
2022-12-13T19:22:18.121Z,99486.84
2022-12-13T19:24:45.556Z,99486.59
2022-12-13T19:27:12.975Z,99486.22
2022-12-13T19:29:40.185Z,99481.19
2022-12-13T19:32:07.602Z,99478.06
2022-12-13T19:34:34.893Z,99485.78
2022-12-13T19:37:06.349Z,99483.22
2022-12-13T19:39:34.046Z,99487.59
2022-12-13T19:42:01.227Z,99481.44
2022-12-13T19:44:28.522Z,99486.84
2022-12-13T19:46:56.205Z,99488.63
2022-12-13T19:49:23.567Z,99499.19
2022-12-13T19:51:52.090Z,99497.50
2022-12-13T19:54:22.387Z,99493.25
2022-12-13T19:56:49.711Z,99490.78
2022-12-13T19:59:16.914Z,99499.69
2022-12-13T20:01:45.241Z,99498.63
2022-12-13T20:04:13.928Z,99494.16
2022-12-13T20:06:41.183Z,99496.84
2022-12-13T20:09:08.974Z,99497.63
2022-12-13T20:11:36.333Z,99497.88
2022-12-13T20:14:03.609Z,99499.94
2022-12-13T20:16:30.912Z,99496.56
2022-12-13T20:19:00.696Z,99501.63
2022-12-13T20:21:29.689Z,99507.56
2022-12-13T20:23:57.953Z,99508.56
2022-12-13T20:26:29.976Z,99506.00
2022-12-13T20:28:57.714Z,99505.34
2022-12-13T20:31:31.206Z,99514.84
2022-12-13T20:34:03.207Z,99513.31
2022-12-13T20:36:31.506Z,99508.94
2022-12-13T20:39:01.884Z,99503.53
2022-12-13T20:41:33.437Z,99503.78
2022-12-13T20:44:05.445Z,99501.84
2022-12-13T20:46:33.235Z,99504.66
2022-12-13T20:49:05.560Z,99493.50
2022-12-13T20:51:35.658Z,99488.34
2022-12-13T20:54:03.902Z,99492.84
2022-12-13T20:56:38.198Z,99496.19
2022-12-13T20:59:10.382Z,99491.41
2022-12-13T21:01:40.569Z,99494.78
2022-12-13T21:04:10.416Z,99495.28
2022-12-13T21:06:43.138Z,99496.44
2022-12-13T21:09:11.884Z,99491.16
2022-12-13T21:11:48.707Z,99491.03
2022-12-13T21:14:36.839Z,99485.47
2022-12-13T21:17:09.835Z,99489.72
2022-12-13T21:19:40.147Z,99492.84
2022-12-13T21:22:08.230Z,99485.22
2022-12-13T21:24:35.402Z,99494.50
2022-12-13T21:27:02.705Z,99501.69
2022-12-13T21:29:29.986Z,99502.47
2022-12-13T21:31:57.205Z,99489.97
2022-12-13T21:34:24.721Z,99498.84
2022-12-13T21:36:52.861Z,99502.22
2022-12-13T21:39:30.885Z,99497.56
2022-12-13T21:41:58.435Z,99502.34
2022-12-13T21:44:26.695Z,99499.59
2022-12-13T21:49:41.255Z,99500.88
2022-12-13T21:52:09.269Z,99494.31
2022-12-13T21:54:36.442Z,99494.56
2022-12-13T21:57:22.626Z,99493.53
2022-12-13T21:59:51.505Z,99493.66
2022-12-13T22:02:19.588Z,99498.56
2022-12-13T22:04:56.119Z,99491.88
2022-12-13T22:07:31.824Z,99492.28
2022-12-13T22:10:02.812Z,99489.34
2022-12-13T22:12:38.382Z,99482.63
2022-12-13T22:15:10.254Z,99472.31
2022-12-13T22:17:38.398Z,99469.47
2022-12-13T22:20:11.546Z,99476.13
2022-12-13T22:22:41.678Z,99469.31
2022-12-13T22:25:10.385Z,99484.09
2022-12-13T22:27:37.783Z,99474.72
2022-12-13T22:30:06.524Z,99475.63
2022-12-13T22:32:34.014Z,99483.09
2022-12-13T22:35:01.268Z,99480.53
2022-12-13T22:37:29.993Z,99476.91
2022-12-13T22:39:57.187Z,99486.56
2022-12-13T22:42:24.695Z,99493.28
2022-12-13T22:44:51.951Z,99488.50
2022-12-13T22:47:19.597Z,99490.59
2022-12-13T22:49:48.883Z,99484.53
2022-12-13T22:52:17.303Z,99476.66
2022-12-13T22:54:44.639Z,99462.50
2022-12-13T22:57:12.088Z,99455.81
2022-12-13T22:59:39.349Z,99448.09
2022-12-13T23:02:06.647Z,99454.28
2022-12-13T23:04:33.930Z,99446.13
2022-12-13T23:07:01.252Z,99446.38
2022-12-13T23:09:28.440Z,99452.06
2022-12-13T23:12:14.451Z,99449.13
2022-12-13T23:14:41.693Z,99450.44
2022-12-13T23:17:09.060Z,99447.72
2022-12-13T23:19:49.138Z,99432.16
2022-12-13T23:22:24.288Z,99423.63
2022-12-13T23:24:52.908Z,99420.81
2022-12-13T23:27:23.204Z,99417.44
2022-12-13T23:29:50.400Z,99428.28
2022-12-13T23:32:17.832Z,99421.84
2022-12-13T23:34:45.145Z,99419.56
2022-12-13T23:37:12.570Z,99419.44
2022-12-13T23:39:41.451Z,99421.91
2022-12-13T23:42:09.084Z,99428.84
2022-12-13T23:44:36.612Z,99442.25
2022-12-13T23:47:04.014Z,99446.50
2022-12-13T23:49:31.281Z,99437.09
2022-12-13T23:51:58.521Z,99435.53
2022-12-13T23:54:26.946Z,99423.69
2022-12-13T23:56:54.460Z,99427.31
2022-12-13T23:59:21.879Z,99424.84
